Time;durP1;ratioP1;P1;durP2;ratioP2;P2;SDS_P1;SDS_P2;PMS_P1;PMS_P2;Temp;Humidity;BMP_temperature;BMP_pressure;BME280_temperature;BME280_humidity;BME280_pressure;Samples;Min_cycle;Max_cycle;Signal;HPM_P1;HPM_P2
2023/08/31 00:01:39;;;;;;;5.07;4.30;;;24.10;56.60;;;;;;5033218;28;20946;-68
2023/08/31 00:04:07;;;;;;;7.67;3.80;;;24.10;56.60;;;;;;5033229;28;20414;-67
2023/08/31 00:06:33;;;;;;;4.47;4.07;;;24.10;56.60;;;;;;5033366;28;20550;-68
2023/08/31 00:08:59;;;;;;;4.43;3.30;;;24.10;56.50;;;;;;5033459;28;20428;-67
2023/08/31 00:11:25;;;;;;;5.43;4.53;;;24.10;56.50;;;;;;5032989;28;20218;-66
2023/08/31 00:13:52;;;;;;;4.10;3.47;;;24.10;56.50;;;;;;5033058;28;20191;-68
2023/08/31 00:16:17;;;;;;;6.27;4.10;;;24.10;56.40;;;;;;5033317;28;20464;-67
2023/08/31 00:18:45;;;;;;;5.00;4.13;;;24.10;56.40;;;;;;5033222;28;21034;-67
2023/08/31 00:21:11;;;;;;;4.23;3.83;;;24.00;56.40;;;;;;5032941;28;20611;-67
2023/08/31 00:23:37;;;;;;;4.77;4.10;;;24.00;56.50;;;;;;5032859;28;20521;-66
2023/08/31 00:26:02;;;;;;;4.50;3.77;;;24.00;56.50;;;;;;5032235;28;20478;-66
2023/08/31 00:28:28;;;;;;;5.07;4.27;;;24.00;56.50;;;;;;5032834;28;20867;-67
2023/08/31 00:30:54;;;;;;;3.80;2.70;;;24.10;56.50;;;;;;5032568;28;20172;-67
2023/08/31 00:33:20;;;;;;;5.60;3.53;;;24.00;56.40;;;;;;5032997;28;20191;-67
2023/08/31 00:35:46;;;;;;;3.87;3.10;;;24.00;56.30;;;;;;5032603;28;20184;-67
2023/08/31 00:38:15;;;;;;;3.80;3.23;;;24.00;56.40;;;;;;5032666;28;20472;-67
2023/08/31 00:40:47;;;;;;;4.40;3.93;;;24.00;56.30;;;;;;5032537;28;20270;-67
2023/08/31 00:43:16;;;;;;;5.40;3.40;;;24.00;56.40;;;;;;5032564;28;20787;-67
2023/08/31 00:45:43;;;;;;;3.30;2.97;;;24.00;56.30;;;;;;5031472;28;20450;-67
2023/08/31 00:48:08;;;;;;;5.93;3.30;;;24.00;56.70;;;;;;5032474;28;20415;-66
2023/08/31 00:50:34;;;;;;;3.80;2.93;;;24.00;56.40;;;;;;5031476;28;20771;-66
2023/08/31 00:53:00;;;;;;;5.40;3.13;;;24.00;56.40;;;;;;5032551;28;20167;-67
2023/08/31 00:55:26;;;;;;;4.47;3.20;;;24.00;56.30;;;;;;5031282;28;20978;-67
2023/08/31 00:57:52;;;;;;;3.93;3.07;;;24.00;56.30;;;;;;5032291;28;20182;-67
2023/08/31 01:00:18;;;;;;;3.80;3.40;;;24.00;56.30;;;;;;5032464;28;20411;-66
2023/08/31 01:03:01;;;;;;;5.20;3.00;;;24.00;56.40;;;;;;5032110;28;20696;-67
2023/08/31 01:05:57;;;;;;;4.20;3.20;;;24.00;56.30;;;;;;5030815;28;20176;-67
2023/08/31 01:08:50;;;;;;;5.70;3.03;;;24.00;56.30;;;;;;5030598;28;20493;-66
2023/08/31 01:11:27;;;;;;;3.77;2.60;;;24.00;56.40;;;;;;5031928;28;20437;-67
2023/08/31 01:14:03;;;;;;;3.70;2.77;;;24.00;56.50;;;;;;5031985;28;20412;-67
2023/08/31 01:16:30;;;;;;;3.47;3.17;;;24.00;56.50;;;;;;5032186;28;20452;-67
2023/08/31 01:18:57;;;;;;;2.83;2.27;;;23.90;56.40;;;;;;5032126;28;20510;-67
2023/08/31 01:21:32;;;;;;;5.10;2.57;;;23.90;56.40;;;;;;5031711;28;20445;-67
2023/08/31 01:23:58;;;;;;;3.00;2.70;;;24.00;56.50;;;;;;5030440;28;20419;-67
2023/08/31 01:26:24;;;;;;;3.63;2.83;;;23.90;56.40;;;;;;5031643;28;20453;-67
2023/08/31 01:28:51;;;;;;;3.70;2.50;;;23.90;56.40;;;;;;5031934;28;20745;-66
2023/08/31 01:31:18;;;;;;;2.40;2.20;;;23.90;56.40;;;;;;5031460;28;20979;-66
2023/08/31 01:33:43;;;;;;;3.60;2.67;;;23.90;56.40;;;;;;5031626;28;20433;-66
2023/08/31 01:36:18;;;;;;;2.90;2.50;;;23.90;56.90;;;;;;5031570;28;20438;-67
2023/08/31 01:38:48;;;;;;;3.37;2.50;;;23.90;56.30;;;;;;5031859;28;20537;-66
2023/08/31 01:41:17;;;;;;;2.53;2.00;;;23.90;56.30;;;;;;5031417;28;20434;-66
2023/08/31 01:43:44;;;;;;;3.80;2.90;;;23.90;56.30;;;;;;5031671;28;20464;-67
2023/08/31 01:46:10;;;;;;;3.90;2.57;;;23.90;56.30;;;;;;5031361;28;20840;-67
2023/08/31 01:48:41;;;;;;;2.83;2.23;;;24.00;56.30;;;;;;5031362;28;20464;-66
2023/08/31 01:51:08;;;;;;;5.00;2.57;;;23.90;56.30;;;;;;5031281;28;20632;-67
2023/08/31 01:53:34;;;;;;;2.80;2.50;;;23.90;56.30;;;;;;5031285;28;20407;-66
2023/08/31 01:56:00;;;;;;;3.00;2.10;;;23.90;56.20;;;;;;5031549;28;20422;-66
2023/08/31 01:58:25;;;;;;;4.17;2.40;;;23.90;56.20;;;;;;5031216;28;20969;-67
2023/08/31 02:00:51;;;;;;;2.40;2.00;;;23.90;56.20;;;;;;5031087;28;20579;-68
2023/08/31 02:03:17;;;;;;;3.30;1.90;;;23.90;56.20;;;;;;5031227;28;20191;-67
2023/08/31 02:05:42;;;;;;;2.00;1.63;;;23.90;56.20;;;;;;5031018;28;20199;-68
2023/08/31 02:08:08;;;;;;;2.80;1.67;;;23.90;56.20;;;;;;5031114;28;20180;-65
2023/08/31 02:10:33;;;;;;;2.47;1.73;;;23.90;56.20;;;;;;5031024;28;20226;-68
2023/08/31 02:13:00;;;;;;;2.03;1.83;;;23.90;56.20;;;;;;5030909;28;20541;-67
2023/08/31 02:15:25;;;;;;;2.63;2.30;;;23.90;56.20;;;;;;5030952;28;20184;-66
2023/08/31 02:17:52;;;;;;;2.70;1.90;;;23.90;56.20;;;;;;5030929;28;20413;-68
2023/08/31 02:20:20;;;;;;;2.50;1.70;;;23.90;56.20;;;;;;5029630;28;20263;-67
2023/08/31 02:22:45;;;;;;;2.43;1.73;;;23.90;56.30;;;;;;5029834;28;20426;-67
2023/08/31 02:25:12;;;;;;;2.43;2.00;;;23.90;56.20;;;;;;5030916;28;20417;-67
2023/08/31 02:27:38;;;;;;;2.10;1.70;;;23.90;56.30;;;;;;5030832;28;20291;-66
2023/08/31 02:30:04;;;;;;;2.90;2.10;;;23.90;56.30;;;;;;5030885;28;20426;-66
2023/08/31 02:32:30;;;;;;;3.10;2.07;;;23.90;56.30;;;;;;5030611;28;20516;-68
2023/08/31 02:34:56;;;;;;;2.20;1.80;;;23.90;56.30;;;;;;5030582;28;20426;-66
2023/08/31 02:37:21;;;;;;;2.37;1.97;;;23.90;56.30;;;;;;5030702;28;20615;-67
2023/08/31 02:39:47;;;;;;;2.60;1.93;;;23.90;56.30;;;;;;5030989;28;20210;-66
2023/08/31 02:42:14;;;;;;;2.77;2.03;;;23.90;56.30;;;;;;5030710;28;20199;-67
2023/08/31 02:44:40;;;;;;;2.43;1.90;;;23.90;56.30;;;;;;5030740;28;20179;-67
2023/08/31 02:47:06;;;;;;;2.17;1.70;;;23.90;56.30;;;;;;5030672;28;20457;-66
2023/08/31 02:49:31;;;;;;;2.67;1.77;;;23.80;56.20;;;;;;5032636;28;20171;-66
2023/08/31 02:51:57;;;;;;;3.60;2.13;;;23.80;56.20;;;;;;5034553;28;20314;-67
2023/08/31 02:54:22;;;;;;;1.90;1.43;;;23.80;56.30;;;;;;5033259;28;20191;-67
2023/08/31 02:56:48;;;;;;;2.43;1.90;;;23.80;56.30;;;;;;5034521;28;20176;-67
2023/08/31 02:59:14;;;;;;;2.70;2.07;;;23.80;56.30;;;;;;5034522;28;20194;-66
2023/08/31 03:01:40;;;;;;;2.27;1.57;;;23.90;56.40;;;;;;5034365;28;20196;-69
2023/08/31 03:04:06;;;;;;;2.20;2.00;;;23.90;56.40;;;;;;5034707;28;20641;-67
2023/08/31 03:06:32;;;;;;;2.50;1.60;;;23.90;56.40;;;;;;5034560;28;20557;-66
2023/08/31 03:08:58;;;;;;;2.00;1.83;;;23.80;56.30;;;;;;5034534;28;20617;-67
2023/08/31 03:11:24;;;;;;;1.87;1.40;;;23.80;56.30;;;;;;5034416;28;20438;-67
2023/08/31 03:13:49;;;;;;;2.00;1.63;;;23.90;56.40;;;;;;5034519;28;20695;-67
2023/08/31 03:16:15;;;;;;;2.50;1.87;;;23.80;56.30;;;;;;5034201;28;20630;-66
2023/08/31 03:18:40;;;;;;;2.40;2.00;;;23.80;56.30;;;;;;5034165;28;20214;-67
2023/08/31 03:21:06;;;;;;;1.90;1.60;;;23.90;56.40;;;;;;5034275;28;20207;-68
2023/08/31 03:23:31;;;;;;;1.30;1.20;;;23.80;56.40;;;;;;5034054;28;20228;-66
2023/08/31 03:25:57;;;;;;;2.70;1.70;;;23.80;56.30;;;;;;5033955;28;20203;-66
2023/08/31 03:28:23;;;;;;;2.23;1.80;;;23.80;56.30;;;;;;5034233;28;20187;-66
2023/08/31 03:30:55;;;;;;;2.20;1.60;;;23.80;56.30;;;;;;5033748;28;20548;-67
2023/08/31 03:33:21;;;;;;;1.90;1.60;;;23.80;56.30;;;;;;5033901;28;20175;-68
2023/08/31 03:35:47;;;;;;;2.17;1.63;;;23.80;56.30;;;;;;5033802;28;20410;-67
2023/08/31 03:38:12;;;;;;;2.50;1.80;;;23.80;56.30;;;;;;5034084;28;20182;-67
2023/08/31 03:40:38;;;;;;;1.73;1.53;;;23.80;56.30;;;;;;5033706;28;20180;-67
2023/08/31 03:43:03;;;;;;;2.10;1.47;;;23.80;56.30;;;;;;5033649;28;20179;-68
2023/08/31 03:45:29;;;;;;;1.97;1.57;;;23.80;56.30;;;;;;5033549;28;20229;-66
2023/08/31 03:47:55;;;;;;;2.40;1.53;;;23.80;56.30;;;;;;5033608;28;20175;-67
2023/08/31 03:50:20;;;;;;;2.03;1.67;;;23.80;56.30;;;;;;5033594;28;20180;-66
2023/08/31 03:52:46;;;;;;;2.17;1.40;;;23.80;56.30;;;;;;5033476;28;20572;-66
2023/08/31 03:55:11;;;;;;;1.80;1.30;;;23.80;56.30;;;;;;5032211;28;20233;-66
2023/08/31 03:57:37;;;;;;;2.10;1.50;;;23.80;56.40;;;;;;5032232;28;20548;-67
2023/08/31 04:00:08;;;;;;;2.60;1.70;;;23.80;56.30;;;;;;5032817;28;20195;-66
2023/08/31 04:02:35;;;;;;;2.10;1.60;;;23.80;56.40;;;;;;5031849;28;20219;-66
2023/08/31 04:05:00;;;;;;;1.70;1.40;;;23.80;56.30;;;;;;5033248;28;20761;-67
2023/08/31 04:07:26;;;;;;;2.20;1.60;;;23.80;56.30;;;;;;5033181;28;20572;-66
2023/08/31 04:09:51;;;;;;;2.00;1.63;;;23.80;56.30;;;;;;5033212;28;20226;-67
2023/08/31 04:12:17;;;;;;;2.00;1.70;;;23.80;56.40;;;;;;5033082;28;20239;-66
2023/08/31 04:14:42;;;;;;;1.83;1.20;;;23.80;56.40;;;;;;5033056;28;20175;-67
2023/08/31 04:17:08;;;;;;;2.30;1.40;;;23.80;56.40;;;;;;5033054;28;20198;-66
2023/08/31 04:19:34;;;;;;;3.60;1.60;;;23.80;56.40;;;;;;5033004;28;20182;-66
2023/08/31 04:21:59;;;;;;;1.47;1.37;;;23.80;56.40;;;;;;5031626;28;20199;-66
2023/08/31 04:24:26;;;;;;;1.27;1.17;;;23.80;56.40;;;;;;5032973;28;20230;-66
2023/08/31 04:26:52;;;;;;;2.03;1.60;;;23.80;56.40;;;;;;5031599;28;20203;-67
2023/08/31 04:29:17;;;;;;;2.23;1.53;;;23.80;56.40;;;;;;5032873;28;20935;-67
2023/08/31 04:31:43;;;;;;;1.67;1.30;;;23.80;56.50;;;;;;5032754;28;20708;-66
2023/08/31 04:34:09;;;;;;;1.40;1.30;;;23.80;56.50;;;;;;5032701;28;20183;-66
2023/08/31 04:36:34;;;;;;;2.27;1.40;;;23.80;56.50;;;;;;5032724;28;20183;-67
2023/08/31 04:39:00;;;;;;;1.40;1.30;;;23.80;57.10;;;;;;5032903;28;20645;-67
2023/08/31 04:41:25;;;;;;;2.00;1.30;;;23.80;56.40;;;;;;5032534;28;20624;-67
2023/08/31 04:43:51;;;;;;;1.83;1.70;;;23.80;56.40;;;;;;5032625;28;20197;-65
2023/08/31 04:46:17;;;;;;;1.83;1.67;;;23.80;56.40;;;;;;5032446;28;20191;-66
2023/08/31 04:48:42;;;;;;;2.20;1.20;;;23.80;56.40;;;;;;5032508;28;20454;-67
2023/08/31 04:51:26;;;;;;;2.40;1.47;;;23.70;56.20;;;;;;5032407;28;20206;-67
2023/08/31 04:53:52;;;;;;;3.53;2.07;;;23.70;56.20;;;;;;5032387;28;20213;-66
2023/08/31 04:56:17;;;;;;;2.20;1.20;;;23.80;56.30;;;;;;5032272;28;20823;-67
2023/08/31 04:58:43;;;;;;;2.20;1.40;;;23.70;56.20;;;;;;5032263;28;20202;-66
2023/08/31 05:01:09;;;;;;;1.60;1.40;;;23.70;56.20;;;;;;5032165;28;20195;-66
2023/08/31 05:03:35;;;;;;;1.30;1.17;;;23.70;56.20;;;;;;5032126;28;20637;-67
2023/08/31 05:06:00;;;;;;;1.60;1.40;;;23.70;56.20;;;;;;5032062;28;20465;-66
2023/08/31 05:08:26;;;;;;;1.60;1.50;;;23.70;56.20;;;;;;5031850;28;20535;-67
2023/08/31 05:10:51;;;;;;;1.60;1.50;;;23.70;56.20;;;;;;5031960;28;20261;-68
2023/08/31 05:13:17;;;;;;;1.80;1.30;;;23.70;56.20;;;;;;5031681;28;20176;-67
2023/08/31 05:15:42;;;;;;;2.23;1.40;;;23.70;56.20;;;;;;5030565;28;20184;-67
2023/08/31 05:18:08;;;;;;;2.10;1.40;;;23.70;56.20;;;;;;5031892;28;20176;-65
2023/08/31 05:20:34;;;;;;;4.33;1.90;;;23.70;56.10;;;;;;5032190;28;20270;-66
2023/08/31 05:22:59;;;;;;;2.70;1.57;;;23.70;56.10;;;;;;5031769;28;20231;-66
2023/08/31 05:25:25;;;;;;;2.80;1.50;;;23.70;56.20;;;;;;5031596;28;20202;-67
2023/08/31 05:27:51;;;;;;;2.37;1.17;;;23.70;56.20;;;;;;5031759;28;20172;-66
2023/08/31 05:30:16;;;;;;;2.77;1.63;;;23.70;56.20;;;;;;5031797;28;20179;-67
2023/08/31 05:32:42;;;;;;;2.20;1.63;;;23.70;56.20;;;;;;5031475;28;20211;-67
2023/08/31 05:35:08;;;;;;;1.23;1.03;;;23.70;56.20;;;;;;5031654;28;20250;-66
2023/08/31 05:37:35;;;;;;;2.23;2.03;;;23.70;56.20;;;;;;5031460;28;20167;-67
2023/08/31 05:40:01;;;;;;;1.50;1.30;;;23.70;56.20;;;;;;5031513;28;20858;-67
2023/08/31 05:42:27;;;;;;;2.80;1.60;;;23.70;56.30;;;;;;5031426;28;20423;-66
2023/08/31 05:44:52;;;;;;;2.87;1.50;;;23.70;56.20;;;;;;5031211;28;20984;-66
2023/08/31 05:47:18;;;;;;;2.60;1.40;;;23.70;56.20;;;;;;5031393;28;20195;-66
2023/08/31 05:49:44;;;;;;;2.47;1.80;;;23.70;56.20;;;;;;5031361;28;20199;-67
2023/08/31 05:52:09;;;;;;;1.70;1.50;;;23.70;56.30;;;;;;5031296;28;20527;-66
2023/08/31 05:54:35;;;;;;;2.60;1.73;;;23.70;56.20;;;;;;5031332;28;20238;-65
2023/08/31 05:57:03;;;;;;;2.63;1.67;;;23.70;56.20;;;;;;5031479;28;20182;-68
2023/08/31 05:59:29;;;;;;;2.30;1.80;;;23.70;56.20;;;;;;5031229;28;20167;-67
2023/08/31 06:01:54;;;;;;;1.70;1.20;;;23.70;56.20;;;;;;5031105;28;20430;-67
2023/08/31 06:04:20;;;;;;;1.87;1.30;;;23.70;56.20;;;;;;5031172;28;20172;-66
2023/08/31 06:06:46;;;;;;;1.63;1.17;;;23.70;56.30;;;;;;5031003;28;20203;-67
2023/08/31 06:09:12;;;;;;;2.20;1.47;;;23.70;56.40;;;;;;5031067;28;20221;-66
2023/08/31 06:11:39;;;;;;;2.03;1.50;;;23.70;56.30;;;;;;5030962;28;20931;-67
2023/08/31 06:14:04;;;;;;;1.80;1.60;;;23.70;56.40;;;;;;5031042;28;20221;-67
2023/08/31 06:16:30;;;;;;;1.97;1.37;;;23.70;56.40;;;;;;5031081;28;20780;-67
2023/08/31 06:18:55;;;;;;;2.43;1.30;;;23.70;56.40;;;;;;5030975;28;20180;-66
2023/08/31 06:21:21;;;;;;;1.87;1.43;;;23.70;56.40;;;;;;5030856;28;20594;-66
2023/08/31 06:23:46;;;;;;;1.80;1.50;;;23.70;56.40;;;;;;5028779;28;20198;-65
2023/08/31 06:26:12;;;;;;;1.80;1.40;;;23.70;56.40;;;;;;5030783;28;20207;-66
2023/08/31 06:28:38;;;;;;;1.60;1.20;;;23.70;56.50;;;;;;5031176;28;20168;-65
2023/08/31 06:31:04;;;;;;;2.07;1.40;;;23.70;56.50;;;;;;5030982;28;20202;-66
2023/08/31 06:33:29;;;;;;;2.30;1.63;;;23.70;56.50;;;;;;5030858;28;20148;-67
2023/08/31 06:35:55;;;;;;;2.43;1.37;;;23.70;56.50;;;;;;5030473;28;20476;-68
2023/08/31 06:38:20;;;;;;;1.70;1.30;;;23.70;56.50;;;;;;5030840;28;20172;-67
2023/08/31 06:40:47;;;;;;;3.17;1.60;;;23.70;56.50;;;;;;5030626;28;20187;-67
2023/08/31 06:43:12;;;;;;;2.80;1.67;;;23.70;56.50;;;;;;5030752;28;20176;-66
2023/08/31 06:45:38;;;;;;;2.43;1.40;;;23.70;56.50;;;;;;5030677;28;20464;-67
2023/08/31 06:48:04;;;;;;;2.40;1.60;;;23.70;56.50;;;;;;5030712;28;20168;-66
2023/08/31 06:50:30;;;;;;;1.63;1.43;;;23.70;56.50;;;;;;5030706;28;20174;-67
2023/08/31 06:52:55;;;;;;;2.37;1.50;;;23.70;56.50;;;;;;5030506;28;20434;-67
2023/08/31 06:55:21;;;;;;;2.17;1.73;;;23.70;56.50;;;;;;5030964;28;20184;-65
2023/08/31 06:57:46;;;;;;;2.50;1.60;;;23.70;56.50;;;;;;5030640;28;20186;-67
2023/08/31 07:00:12;;;;;;;2.50;2.30;;;23.70;56.50;;;;;;5030591;28;20175;-66
2023/08/31 07:02:42;;;;;;;2.00;1.53;;;23.70;56.40;;;;;;5029723;28;20198;-66
2023/08/31 07:05:10;;;;;;;2.43;1.77;;;23.70;56.40;;;;;;5030202;28;20414;-67
2023/08/31 07:07:36;;;;;;;1.80;1.50;;;23.70;56.40;;;;;;5030423;28;20983;-66
2023/08/31 07:10:02;;;;;;;2.40;1.80;;;23.70;56.40;;;;;;5030500;28;20422;-66
2023/08/31 07:12:28;;;;;;;1.50;1.33;;;23.70;56.40;;;;;;5030665;28;20195;-66
2023/08/31 07:14:53;;;;;;;1.60;1.50;;;23.70;56.40;;;;;;5030484;28;20434;-65
2023/08/31 07:17:19;;;;;;;2.00;1.80;;;23.70;56.30;;;;;;5030232;28;20179;-67
2023/08/31 07:19:45;;;;;;;2.50;1.50;;;23.70;56.50;;;;;;5030457;28;20180;-66
2023/08/31 07:22:11;;;;;;;2.73;2.10;;;23.70;56.20;;;;;;5029077;28;20238;-66
2023/08/31 07:24:37;;;;;;;3.33;2.30;;;23.70;56.20;;;;;;5032194;28;20202;-68
2023/08/31 07:27:03;;;;;;;2.67;2.20;;;23.70;56.20;;;;;;5032963;28;20548;-65
2023/08/31 07:29:29;;;;;;;3.10;1.90;;;23.70;56.10;;;;;;5030313;28;20653;-66
2023/08/31 07:31:55;;;;;;;2.43;1.77;;;23.70;56.20;;;;;;5029441;28;20454;-68
2023/08/31 07:34:20;;;;;;;2.57;1.80;;;23.70;56.20;;;;;;5029827;28;20180;-66
2023/08/31 07:36:46;;;;;;;1.80;1.70;;;23.70;56.80;;;;;;5033676;28;20199;-66
2023/08/31 07:39:12;;;;;;;2.93;1.80;;;23.70;56.30;;;;;;5033648;28;20599;-66
2023/08/31 07:41:38;;;;;;;2.73;2.00;;;23.70;56.30;;;;;;5033917;28;20434;-67
2023/08/31 07:44:04;;;;;;;2.60;1.93;;;23.80;56.40;;;;;;5033632;28;20182;-66
2023/08/31 07:46:30;;;;;;;3.37;2.40;;;23.80;56.40;;;;;;5048523;28;20203;-66
2023/08/31 07:48:56;;;;;;;6.80;2.33;;;23.80;56.20;;;;;;5053312;28;20413;-67
2023/08/31 07:51:23;;;;;;;3.10;2.70;;;23.80;56.10;;;;;;5052047;28;20257;-66
2023/08/31 07:53:49;;;;;;;2.50;2.20;;;23.80;56.00;;;;;;5052012;28;20210;-66
2023/08/31 07:56:15;;;;;;;2.60;1.97;;;23.90;56.00;;;;;;5053294;28;20413;-67
2023/08/31 07:58:41;;;;;;;3.17;2.40;;;23.80;55.90;;;;;;5037929;28;21340;-66
2023/08/31 08:01:06;;;;;;;3.00;2.10;;;23.90;56.00;;;;;;5029998;28;20199;-66
2023/08/31 08:03:32;;;;;;;2.43;2.13;;;23.80;55.90;;;;;;5032771;28;20860;-67
2023/08/31 08:05:58;;;;;;;3.60;2.20;;;23.80;55.90;;;;;;5031498;28;20680;-66
2023/08/31 08:08:23;;;;;;;2.73;2.40;;;23.90;55.90;;;;;;5031374;28;20175;-65
2023/08/31 08:10:53;;;;;;;2.17;1.97;;;23.90;55.90;;;;;;5031314;28;20172;-67
2023/08/31 08:13:18;;;;;;;2.80;2.43;;;23.90;55.90;;;;;;5031343;28;20172;-67
2023/08/31 08:15:45;;;;;;;2.77;2.53;;;23.90;55.90;;;;;;5033132;28;20406;-66
2023/08/31 08:18:11;;;;;;;5.43;1.93;;;23.90;55.90;;;;;;5032997;28;20225;-66
2023/08/31 08:20:36;;;;;;;2.63;1.90;;;23.90;55.90;;;;;;5032931;28;20402;-66
2023/08/31 08:23:02;;;;;;;3.50;1.80;;;23.90;55.90;;;;;;5032914;28;20175;-66
2023/08/31 08:25:28;;;;;;;2.50;1.73;;;23.90;55.90;;;;;;5032892;28;20221;-68
2023/08/31 08:27:53;;;;;;;2.60;2.10;;;23.90;56.00;;;;;;5032939;28;20180;-66
2023/08/31 08:30:19;;;;;;;3.30;2.00;;;23.90;56.00;;;;;;5032888;28;20608;-68
2023/08/31 08:32:45;;;;;;;2.17;1.83;;;23.90;56.00;;;;;;5032690;28;20225;-67
2023/08/31 08:35:11;;;;;;;3.07;1.87;;;23.90;56.00;;;;;;5032628;28;20210;-67
2023/08/31 08:37:36;;;;;;;1.77;1.67;;;23.90;56.00;;;;;;5032635;28;20695;-66
2023/08/31 08:40:04;;;;;;;2.73;1.80;;;24.00;56.10;;;;;;5032657;28;20176;-67
2023/08/31 08:42:33;;;;;;;2.13;1.70;;;24.00;56.10;;;;;;5032574;28;20200;-66
2023/08/31 08:45:01;;;;;;;2.83;1.90;;;24.00;56.10;;;;;;5032815;28;20795;-67
2023/08/31 08:47:27;;;;;;;2.00;1.80;;;24.00;56.10;;;;;;5031694;28;20549;-67
2023/08/31 08:49:54;;;;;;;3.03;2.07;;;24.00;56.10;;;;;;5032448;28;20885;-66
2023/08/31 08:52:21;;;;;;;2.67;1.73;;;24.00;56.10;;;;;;5032435;28;20191;-67
2023/08/31 08:54:48;;;;;;;2.70;1.67;;;24.00;56.10;;;;;;5032408;28;20407;-67
2023/08/31 08:57:14;;;;;;;1.87;1.70;;;24.00;56.10;;;;;;5032267;28;20418;-66
2023/08/31 08:59:39;;;;;;;2.17;1.97;;;24.00;56.10;;;;;;5032227;28;20425;-66
2023/08/31 09:02:09;;;;;;;1.73;1.63;;;24.00;56.10;;;;;;5032141;28;20207;-64
2023/08/31 09:04:34;;;;;;;2.60;2.20;;;24.00;56.10;;;;;;5032156;28;20263;-67
2023/08/31 09:07:00;;;;;;;2.97;1.70;;;24.00;56.10;;;;;;5032240;28;20545;-65
2023/08/31 09:09:26;;;;;;;2.30;2.10;;;24.00;56.10;;;;;;5032337;28;20180;-67
2023/08/31 09:11:51;;;;;;;2.17;1.77;;;24.10;56.10;;;;;;5032348;28;20656;-65
2023/08/31 09:14:19;;;;;;;1.77;1.67;;;24.00;56.10;;;;;;5032045;28;20433;-64
2023/08/31 09:16:46;;;;;;;1.93;1.80;;;24.10;56.10;;;;;;5032240;28;20186;-65
2023/08/31 09:19:23;;;;;;;4.03;1.50;;;24.10;56.10;;;;;;5032040;28;20424;-65
2023/08/31 09:21:50;;;;;;;2.90;2.20;;;24.10;56.10;;;;;;5031898;28;20488;-67
2023/08/31 09:24:17;;;;;;;2.13;1.77;;;24.10;56.10;;;;;;5032235;28;20434;-64
2023/08/31 09:26:46;;;;;;;3.10;2.00;;;24.10;56.10;;;;;;5032409;28;20537;-67
2023/08/31 09:29:12;;;;;;;3.93;1.83;;;24.10;56.10;;;;;;5032557;28;20469;-65
2023/08/31 09:31:37;;;;;;;1.83;1.60;;;24.10;56.10;;;;;;5032350;28;20482;-67
2023/08/31 09:34:03;;;;;;;3.47;1.67;;;24.10;56.10;;;;;;5032685;28;20655;-67
2023/08/31 09:36:29;;;;;;;5.60;1.93;;;24.10;56.10;;;;;;5032347;28;20210;-67
2023/08/31 09:38:58;;;;;;;1.80;1.60;;;24.10;56.10;;;;;;5031865;28;20183;-66
2023/08/31 09:41:24;;;;;;;2.10;1.73;;;24.10;56.10;;;;;;5029685;28;20953;-67
2023/08/31 09:43:50;;;;;;;2.20;1.60;;;24.10;56.10;;;;;;5030384;28;20415;-65
2023/08/31 09:46:16;;;;;;;1.80;1.60;;;24.10;56.10;;;;;;5030124;28;20469;-67
2023/08/31 09:48:43;;;;;;;1.90;1.70;;;24.10;56.10;;;;;;5031773;28;20176;-67
2023/08/31 09:51:14;;;;;;;3.07;1.90;;;24.10;56.10;;;;;;5031101;28;20442;-67
2023/08/31 09:53:41;;;;;;;2.63;1.50;;;24.10;56.20;;;;;;5031789;28;20441;-65
2023/08/31 09:56:10;;;;;;;1.70;1.40;;;24.10;56.10;;;;;;5031306;28;20788;-67
2023/08/31 09:58:36;;;;;;;2.57;1.60;;;24.10;56.10;;;;;;5029501;28;20418;-67
2023/08/31 10:01:02;;;;;;;3.23;1.70;;;24.10;56.10;;;;;;5031334;28;20469;-66
2023/08/31 10:03:28;;;;;;;3.00;1.77;;;24.10;56.10;;;;;;5030966;28;20538;-64
2023/08/31 10:05:54;;;;;;;3.20;2.83;;;24.20;56.20;;;;;;5031120;28;20559;-66
2023/08/31 10:08:20;;;;;;;4.17;2.30;;;24.20;56.20;;;;;;5030926;28;20418;-67
2023/08/31 10:10:46;;;;;;;2.13;1.63;;;24.20;56.20;;;;;;5027969;28;20765;-68
2023/08/31 10:13:13;;;;;;;4.00;1.70;;;24.20;56.20;;;;;;5029253;28;20665;-66
2023/08/31 10:15:39;;;;;;;2.23;1.70;;;24.20;56.20;;;;;;5029949;28;20182;-65
2023/08/31 10:18:06;;;;;;;2.37;1.60;;;24.20;56.20;;;;;;5030276;28;20948;-66
2023/08/31 10:20:33;;;;;;;2.63;1.87;;;24.20;56.10;;;;;;5031065;28;20436;-65
2023/08/31 10:23:04;;;;;;;3.33;1.93;;;24.20;56.20;;;;;;5029718;28;20831;-65
2023/08/31 10:25:56;;;;;;;1.87;1.40;;;24.20;56.20;;;;;;5031003;28;20394;-65
2023/08/31 10:28:25;;;;;;;1.87;1.40;;;24.20;56.10;;;;;;5026472;28;20461;-66
2023/08/31 10:31:08;;;;;;;1.90;1.67;;;24.20;56.20;;;;;;5030234;28;20441;-66
2023/08/31 10:33:42;;;;;;;1.73;1.57;;;24.20;56.20;;;;;;5030951;28;20402;-66
2023/08/31 10:36:18;;;;;;;2.23;1.40;;;24.20;56.20;;;;;;5031066;28;20880;-66
2023/08/31 10:39:00;;;;;;;1.97;1.67;;;24.20;56.20;;;;;;5030688;28;20406;-65
2023/08/31 10:41:35;;;;;;;3.03;1.50;;;24.20;56.20;;;;;;5028139;28;20483;-66
2023/08/31 10:44:00;;;;;;;1.80;1.40;;;24.20;56.20;;;;;;5030157;28;20417;-69
2023/08/31 10:46:42;;;;;;;2.03;1.93;;;24.20;56.20;;;;;;5029450;28;20454;-66
2023/08/31 10:49:11;;;;;;;1.80;1.60;;;24.20;56.70;;;;;;5030247;28;20160;-66
2023/08/31 10:51:39;;;;;;;2.27;1.67;;;24.20;56.20;;;;;;5030065;28;20434;-66
2023/08/31 10:54:14;;;;;;;4.70;1.80;;;24.20;56.20;;;;;;5030311;28;20426;-68
2023/08/31 10:57:09;;;;;;;1.90;1.63;;;24.20;56.20;;;;;;5030780;28;20990;-67
2023/08/31 10:59:53;;;;;;;2.77;1.53;;;24.20;56.20;;;;;;5030792;28;20395;-66
2023/08/31 11:02:38;;;;;;;2.03;1.40;;;24.20;56.20;;;;;;5030378;28;20434;-67
2023/08/31 11:05:06;;;;;;;1.93;1.57;;;24.30;56.20;;;;;;5030873;28;20453;-66
2023/08/31 11:07:34;;;;;;;2.20;1.57;;;24.20;56.20;;;;;;5030743;28;20461;-65
2023/08/31 11:10:15;;;;;;;2.03;1.43;;;24.30;56.20;;;;;;5031126;28;20414;-66
2023/08/31 11:12:42;;;;;;;5.97;1.63;;;24.30;56.80;;;;;;5034340;28;20430;-66
2023/08/31 11:15:10;;;;;;;3.00;1.57;;;24.30;56.20;;;;;;5034342;28;20787;-66
2023/08/31 11:17:40;;;;;;;1.87;1.37;;;24.30;56.20;;;;;;5034145;28;20429;-67
2023/08/31 11:20:06;;;;;;;2.43;1.50;;;24.30;56.20;;;;;;5034291;28;20449;-67
2023/08/31 11:22:33;;;;;;;3.33;1.63;;;24.30;56.10;;;;;;5033867;28;20434;-66
2023/08/31 11:24:59;;;;;;;1.70;1.50;;;24.30;56.10;;;;;;5033767;28;20429;-68
2023/08/31 11:27:25;;;;;;;3.20;1.50;;;24.30;56.00;;;;;;5033508;28;20458;-66
2023/08/31 11:29:51;;;;;;;2.17;1.67;;;24.30;55.80;;;;;;5033991;28;20457;-66
2023/08/31 11:32:16;;;;;;;1.97;1.77;;;24.30;55.60;;;;;;5033618;28;20488;-68
2023/08/31 11:34:43;;;;;;;1.60;1.40;;;24.30;55.40;;;;;;5033541;28;20229;-65
2023/08/31 11:37:17;;;;;;;2.07;1.83;;;24.30;55.20;;;;;;5033699;28;20180;-67
2023/08/31 11:39:49;;;;;;;3.90;2.13;;;24.30;55.10;;;;;;5034077;28;20399;-67
2023/08/31 11:42:16;;;;;;;2.43;1.77;;;24.30;54.90;;;;;;5033699;28;20426;-67
2023/08/31 11:44:42;;;;;;;1.87;1.47;;;24.30;54.60;;;;;;5033683;28;21288;-65
2023/08/31 11:47:08;;;;;;;2.97;1.70;;;24.20;54.40;;;;;;5033539;28;20548;-67
2023/08/31 11:49:33;;;;;;;2.13;1.80;;;24.20;54.50;;;;;;5031408;28;20278;-67
2023/08/31 11:51:59;;;;;;;2.00;1.80;;;24.20;54.70;;;;;;5031814;28;20199;-65
2023/08/31 11:54:26;;;;;;;2.90;1.77;;;24.20;54.80;;;;;;5033521;28;20176;-66
2023/08/31 11:56:51;;;;;;;1.97;1.70;;;24.20;54.80;;;;;;5033780;28;20249;-66
2023/08/31 11:59:19;;;;;;;2.40;1.43;;;24.20;54.80;;;;;;5031847;28;20430;-67
2023/08/31 12:01:47;;;;;;;2.00;1.60;;;24.20;54.80;;;;;;5033601;28;20233;-67
2023/08/31 12:04:15;;;;;;;2.93;1.67;;;24.20;54.70;;;;;;5033648;28;20543;-67
2023/08/31 12:06:41;;;;;;;2.73;1.83;;;24.20;54.70;;;;;;5031518;28;20465;-67
2023/08/31 12:09:10;;;;;;;2.10;1.60;;;24.20;54.80;;;;;;5032588;28;20425;-65
2023/08/31 12:11:36;;;;;;;2.53;1.60;;;24.20;54.80;;;;;;5033134;28;20800;-67
2023/08/31 12:14:22;;;;;;;2.80;1.57;;;24.20;54.90;;;;;;5064871;28;20420;-68
2023/08/31 12:16:49;;;;;;;3.90;1.83;;;24.20;54.90;;;;;;5033177;28;20164;-66
2023/08/31 12:19:15;;;;;;;2.33;1.67;;;24.10;54.80;;;;;;5033220;28;20729;-67
2023/08/31 12:21:44;;;;;;;2.67;1.83;;;24.10;54.90;;;;;;5031973;28;20462;-68
2023/08/31 12:24:09;;;;;;;1.83;1.67;;;24.10;54.90;;;;;;5032519;28;20187;-67
2023/08/31 12:26:35;;;;;;;4.33;1.70;;;24.10;55.00;;;;;;5030358;28;20882;-67
2023/08/31 12:29:02;;;;;;;2.40;1.70;;;24.10;55.00;;;;;;5032948;28;20176;-66
2023/08/31 12:31:28;;;;;;;2.10;1.60;;;24.10;55.10;;;;;;5032605;28;20566;-67
2023/08/31 12:33:53;;;;;;;2.23;1.60;;;24.10;55.10;;;;;;5033069;28;20493;-67
2023/08/31 12:36:19;;;;;;;3.23;1.43;;;24.10;55.10;;;;;;5032760;28;20230;-69
2023/08/31 12:38:45;;;;;;;1.67;1.40;;;24.10;55.20;;;;;;5032527;28;20186;-67
2023/08/31 12:41:11;;;;;;;2.43;1.43;;;24.10;55.20;;;;;;5032803;28;20249;-67
2023/08/31 12:43:37;;;;;;;2.63;1.70;;;24.10;55.20;;;;;;5032596;28;20925;-65
2023/08/31 12:46:05;;;;;;;2.70;1.80;;;24.10;55.20;;;;;;5031504;28;20211;-67
2023/08/31 12:48:35;;;;;;;3.23;1.70;;;24.10;55.30;;;;;;5032550;28;20275;-67